Pagina principale
METAR-TAF:

METAR-TAF

Aeroporti :

Anchorage, Alaska, Stati Uniti

latitudine: 61-11N, longitudine: 149-58W, altezza: 22 m

Osservazione

Il bollettino è stato emesso 1 ora e 6 minuti fa, alle 13:53 UTC
Vento 4 kt da est/nord-est
Temperature 7°C
Umidità 81%
Pressione 1010 hPa
Visibilità: 16.1 km
Cielo coperto ad un'altezza di 7000 ft

METAR: PALH 221353Z AUTO 07004KT 10SM OVC070 07/04 A2983 RMK AO2 SLP103 T00720044 TSNO

Ora: 06:59 (14:59 UTC)


TAF: mancante

Osservazioni e previsioni meteorologiche di più di 4000 aeroporti (messaggi METAR e TAF).

Le stazioni disponibili sono rappresentate dai dischi gialli e rossi sulla carta.

Puntare il mouse per vedere il nome della stazione.

Clicca sopra per visualizzare le osservazioni e previsioni meteorologiche.

Per cambiare la mappa : fare clic sui pulsanti verdi con una croce nera per ingrandire, il pulsante verde con un trattino per diminuire, o sulla freccia verde per le mappe adiacenti.


METAR-TAF: